Terminal Aerodrome Forecast
Issued by NWS

Home | Current Version | Previous Version | Text Only | Print | Product List | Glossary On
Versions: 1 2 3 4 5 6 7 8 9 10 11 12
110
FTPA31 PHFO 211138
TAFHMK
TAF
PHMK 211138Z 2112/2212 01012G22KT P6SM VCSH SCT020 BKN035
     FM212000 03020G30KT P6SM VCSH BKN030=

USA.gov is the U.S. government's official web portal to all federal, state and local government web resources and services.